This is the latest recevied weather packets stored in our database for station/object W4NDF-13. If no packets are shown the sender has not sent any weather packets the latest 10 day(s).
| Time | Temp. | Humidity | Pressure | Rain* | Wind** | Luminosity | Snow |
|---|---|---|---|---|---|---|---|
| 1777675357 | 15.56° C | 97% | 1011.9 hPa | 0 mm | - | 14 W/m² | - |
| 1777675053 | 16.11° C | 97% | 1011.9 hPa | 0 mm | - | 16 W/m² | - |
| 1777674750 | 16.11° C | 97% | 1011.8 hPa | 0 mm | - | 25 W/m² | - |
| 1777674446 | 16.11° C | 97% | 1011.9 hPa | 0 mm | - | 27 W/m² | - |
| 1777674144 | 16.11° C | 98% | 1011.9 hPa | 0 mm | - | 18 W/m² | - |
| 1777673840 | 16.11° C | 98% | 1012.1 hPa | 0 mm | - | 21 W/m² | - |
| 1777673537 | 16.67° C | 99% | 1011.9 hPa | 0 mm | - | 33 W/m² | - |
| 1777673234 | 16.67° C | 99% | 1012.2 hPa | 0 mm | - | 39 W/m² | - |
| 1777672932 | 16.67° C | 99% | 1011.9 hPa | 0 mm | - | 38 W/m² | - |
| 1777672629 | 16.67° C | 99% | 1011.5 hPa | 0 mm | - | 55 W/m² | - |
| 1777672324 | 17.22° C | 99% | 1011.4 hPa | 0 mm | - | 81 W/m² | - |
| 1777672018 | 17.22° C | 99% | 1011.6 hPa | 0 mm | - | 75 W/m² | - |
| 1777671715 | 17.22° C | 99% | 1011.6 hPa | 0 mm | - | 148 W/m² | - |
| 1777671412 | 16.67° C | 99% | 1012 hPa | 0 mm | - | 87 W/m² | - |
| 1777671107 | 17.22° C | 99% | 1012.4 hPa | 0 mm | - | 58 W/m² | - |
| 1777670804 | 16.67° C | 99% | 1012.3 hPa | 1.27 mm | - | 27 W/m² | - |
| 1777670501 | 16.67° C | 99% | 1012.2 hPa | 7.11 mm | - | 45 W/m² | - |
| 1777670198 | 16.67° C | 99% | 1012.3 hPa | 6.1 mm | - | 46 W/m² | - |
| 1777669895 | 16.67° C | 99% | 1012.6 hPa | 1.78 mm | - | 13 W/m² | - |
| 1777669592 | 17.22° C | 99% | 1012.3 hPa | 0 mm | - | 9 W/m² | - |
| 1777669288 | 16.67° C | 99% | 1012 hPa | 1.27 mm | - | 17 W/m² | - |
| 1777668985 | 16.67° C | 99% | 1012.1 hPa | 4.32 mm | - | 45 W/m² | - |
| 1777668683 | 17.22° C | 99% | 1012 hPa | 9.65 mm | - | 87 W/m² | - |
| 1777668379 | 16.67° C | 99% | 1012.9 hPa | 8.89 mm | - | 17 W/m² | - |
| 1777668075 | 16.67° C | 99% | 1013.2 hPa | 7.87 mm | - | 21 W/m² | - |
* Rain latest hour (hover to see other rain measurements)
** Current wind speed in m/s (hover to see current wind gust speed)